sensor_id;sensor_type;location;lat;lon;timestamp;temperature;humidity
12957;DHT22;6543;48.836;10.092;2023-01-06T00:00:36;8.10;99.90
12957;DHT22;6543;48.836;10.092;2023-01-06T00:03:03;8.20;99.90
12957;DHT22;6543;48.836;10.092;2023-01-06T00:05:30;8.20;99.90
12957;DHT22;6543;48.836;10.092;2023-01-06T00:07:57;8.20;99.90
12957;DHT22;6543;48.836;10.092;2023-01-06T00:10:24;8.20;99.90
12957;DHT22;6543;48.836;10.092;2023-01-06T00:12:51;8.20;99.90
12957;DHT22;6543;48.836;10.092;2023-01-06T00:15:19;8.10;99.90
12957;DHT22;6543;48.836;10.092;2023-01-06T00:17:46;8.20;99.90
12957;DHT22;6543;48.836;10.092;2023-01-06T00:20:13;8.20;99.90
12957;DHT22;6543;48.836;10.092;2023-01-06T00:22:41;8.30;99.90
12957;DHT22;6543;48.836;10.092;2023-01-06T00:25:09;8.30;99.90
12957;DHT22;6543;48.836;10.092;2023-01-06T00:27:36;8.30;99.90
12957;DHT22;6543;48.836;10.092;2023-01-06T00:30:04;8.30;99.90
12957;DHT22;6543;48.836;10.092;2023-01-06T00:32:33;8.30;99.90
12957;DHT22;6543;48.836;10.092;2023-01-06T00:35:00;8.30;99.90
12957;DHT22;6543;48.836;10.092;2023-01-06T00:37:27;8.30;99.90
12957;DHT22;6543;48.836;10.092;2023-01-06T00:39:53;8.30;99.90
12957;DHT22;6543;48.836;10.092;2023-01-06T00:42:20;8.20;99.90
12957;DHT22;6543;48.836;10.092;2023-01-06T00:44:49;8.20;99.90
12957;DHT22;6543;48.836;10.092;2023-01-06T00:47:16;8.20;99.90
12957;DHT22;6543;48.836;10.092;2023-01-06T00:49:45;8.20;99.90
12957;DHT22;6543;48.836;10.092;2023-01-06T00:52:12;8.20;99.90
12957;DHT22;6543;48.836;10.092;2023-01-06T00:54:39;8.30;99.90
12957;DHT22;6543;48.836;10.092;2023-01-06T00:57:06;8.20;99.90
12957;DHT22;6543;48.836;10.092;2023-01-06T00:59:33;8.10;99.90
12957;DHT22;6543;48.836;10.092;2023-01-06T01:02:01;8.10;99.90
12957;DHT22;6543;48.836;10.092;2023-01-06T01:04:27;8.00;99.90
12957;DHT22;6543;48.836;10.092;2023-01-06T01:06:57;7.90;99.90
12957;DHT22;6543;48.836;10.092;2023-01-06T01:09:27;7.90;99.90
12957;DHT22;6543;48.836;10.092;2023-01-06T01:14:21;7.90;99.90
12957;DHT22;6543;48.836;10.092;2023-01-06T01:16:48;7.80;99.90
12957;DHT22;6543;48.836;10.092;2023-01-06T01:19:15;7.80;99.90
12957;DHT22;6543;48.836;10.092;2023-01-06T01:21:42;7.80;99.90
12957;DHT22;6543;48.836;10.092;2023-01-06T01:24:11;7.80;99.90
12957;DHT22;6543;48.836;10.092;2023-01-06T01:26:38;7.80;99.90
12957;DHT22;6543;48.836;10.092;2023-01-06T01:29:05;7.80;99.90
12957;DHT22;6543;48.836;10.092;2023-01-06T01:31:32;7.80;99.90
12957;DHT22;6543;48.836;10.092;2023-01-06T01:33:59;7.70;99.90
12957;DHT22;6543;48.836;10.092;2023-01-06T01:36:26;7.80;99.90
12957;DHT22;6543;48.836;10.092;2023-01-06T01:38:54;7.90;99.90
12957;DHT22;6543;48.836;10.092;2023-01-06T01:41:24;7.90;99.90
12957;DHT22;6543;48.836;10.092;2023-01-06T01:43:52;7.80;99.90
12957;DHT22;6543;48.836;10.092;2023-01-06T01:46:22;7.80;99.90
12957;DHT22;6543;48.836;10.092;2023-01-06T01:48:51;7.80;99.90
12957;DHT22;6543;48.836;10.092;2023-01-06T01:51:27;7.80;99.90
12957;DHT22;6543;48.836;10.092;2023-01-06T01:53:57;7.80;99.90
12957;DHT22;6543;48.836;10.092;2023-01-06T01:56:29;7.90;99.90
12957;DHT22;6543;48.836;10.092;2023-01-06T01:58:59;8.00;99.90
12957;DHT22;6543;48.836;10.092;2023-01-06T02:01:28;8.00;99.90
12957;DHT22;6543;48.836;10.092;2023-01-06T02:03:56;8.10;99.90
12957;DHT22;6543;48.836;10.092;2023-01-06T02:06:24;8.10;99.90
12957;DHT22;6543;48.836;10.092;2023-01-06T02:08:55;8.10;99.90
12957;DHT22;6543;48.836;10.092;2023-01-06T02:11:29;8.10;99.90
12957;DHT22;6543;48.836;10.092;2023-01-06T02:14:02;8.10;99.90
12957;DHT22;6543;48.836;10.092;2023-01-06T02:16:42;8.10;99.90
12957;DHT22;6543;48.836;10.092;2023-01-06T02:19:34;8.00;99.90
12957;DHT22;6543;48.836;10.092;2023-01-06T02:22:23;8.00;99.90
12957;DHT22;6543;48.836;10.092;2023-01-06T02:25:23;8.00;99.90
12957;DHT22;6543;48.836;10.092;2023-01-06T02:28:28;8.00;99.90
12957;DHT22;6543;48.836;10.092;2023-01-06T02:34:15;8.00;99.90
12957;DHT22;6543;48.836;10.092;2023-01-06T02:36:53;8.00;99.90
12957;DHT22;6543;48.836;10.092;2023-01-06T02:39:33;8.00;99.90
12957;DHT22;6543;48.836;10.092;2023-01-06T02:42:15;8.10;99.90
12957;DHT22;6543;48.836;10.092;2023-01-06T02:44:51;8.10;99.90
12957;DHT22;6543;48.836;10.092;2023-01-06T02:47:26;8.10;99.90
12957;DHT22;6543;48.836;10.092;2023-01-06T02:49:59;8.10;99.90
12957;DHT22;6543;48.836;10.092;2023-01-06T02:52:42;8.10;99.90
12957;DHT22;6543;48.836;10.092;2023-01-06T02:55:14;8.10;99.90
12957;DHT22;6543;48.836;10.092;2023-01-06T02:57:46;8.10;99.90
12957;DHT22;6543;48.836;10.092;2023-01-06T03:00:18;8.10;99.90
12957;DHT22;6543;48.836;10.092;2023-01-06T03:02:49;8.10;99.90
12957;DHT22;6543;48.836;10.092;2023-01-06T03:05:21;8.10;99.90
12957;DHT22;6543;48.836;10.092;2023-01-06T03:07:49;8.20;99.90
12957;DHT22;6543;48.836;10.092;2023-01-06T03:10:17;8.20;99.90
12957;DHT22;6543;48.836;10.092;2023-01-06T03:12:50;8.20;99.90
12957;DHT22;6543;48.836;10.092;2023-01-06T03:15:17;8.20;99.90
12957;DHT22;6543;48.836;10.092;2023-01-06T03:17:44;8.20;99.90
12957;DHT22;6543;48.836;10.092;2023-01-06T03:20:12;8.20;99.90
12957;DHT22;6543;48.836;10.092;2023-01-06T03:22:41;8.20;99.90
12957;DHT22;6543;48.836;10.092;2023-01-06T03:25:09;8.20;99.90
12957;DHT22;6543;48.836;10.092;2023-01-06T03:27:36;8.20;99.90
12957;DHT22;6543;48.836;10.092;2023-01-06T03:30:05;8.20;99.90
12957;DHT22;6543;48.836;10.092;2023-01-06T03:32:39;8.20;99.90
12957;DHT22;6543;48.836;10.092;2023-01-06T03:35:24;8.20;99.90
12957;DHT22;6543;48.836;10.092;2023-01-06T03:38:01;8.20;99.90
12957;DHT22;6543;48.836;10.092;2023-01-06T03:40:32;8.20;99.90
12957;DHT22;6543;48.836;10.092;2023-01-06T03:43:07;8.20;99.90
12957;DHT22;6543;48.836;10.092;2023-01-06T03:45:50;8.20;99.90
12957;DHT22;6543;48.836;10.092;2023-01-06T03:48:23;8.20;99.90
12957;DHT22;6543;48.836;10.092;2023-01-06T03:50:56;8.20;99.90
12957;DHT22;6543;48.836;10.092;2023-01-06T03:53:32;8.30;99.90
12957;DHT22;6543;48.836;10.092;2023-01-06T03:56:06;8.20;99.90
12957;DHT22;6543;48.836;10.092;2023-01-06T03:58:36;8.20;99.90
12957;DHT22;6543;48.836;10.092;2023-01-06T04:01:05;8.30;99.90
12957;DHT22;6543;48.836;10.092;2023-01-06T04:03:33;8.30;99.90
12957;DHT22;6543;48.836;10.092;2023-01-06T04:06:00;8.30;99.90
12957;DHT22;6543;48.836;10.092;2023-01-06T04:08:28;8.30;99.90
12957;DHT22;6543;48.836;10.092;2023-01-06T04:10:55;8.30;99.90
12957;DHT22;6543;48.836;10.092;2023-01-06T04:13:22;8.30;99.90
12957;DHT22;6543;48.836;10.092;2023-01-06T04:15:47;8.30;99.90
12957;DHT22;6543;48.836;10.092;2023-01-06T04:18:14;8.30;99.90
12957;DHT22;6543;48.836;10.092;2023-01-06T04:20:41;8.20;99.90
12957;DHT22;6543;48.836;10.092;2023-01-06T04:23:08;8.30;99.90
12957;DHT22;6543;48.836;10.092;2023-01-06T04:25:36;8.20;99.90
12957;DHT22;6543;48.836;10.092;2023-01-06T04:28:03;8.20;99.90
12957;DHT22;6543;48.836;10.092;2023-01-06T04:30:30;8.20;99.90
12957;DHT22;6543;48.836;10.092;2023-01-06T04:32:57;8.20;99.90
12957;DHT22;6543;48.836;10.092;2023-01-06T04:35:24;8.20;99.90
12957;DHT22;6543;48.836;10.092;2023-01-06T04:37:50;8.20;99.90
12957;DHT22;6543;48.836;10.092;2023-01-06T04:40:17;8.20;99.90
12957;DHT22;6543;48.836;10.092;2023-01-06T04:42:45;8.20;99.90
12957;DHT22;6543;48.836;10.092;2023-01-06T04:45:31;8.20;99.90
12957;DHT22;6543;48.836;10.092;2023-01-06T04:47:58;8.10;99.90
12957;DHT22;6543;48.836;10.092;2023-01-06T04:50:24;8.10;99.90
12957;DHT22;6543;48.836;10.092;2023-01-06T04:52:51;8.10;99.90
12957;DHT22;6543;48.836;10.092;2023-01-06T04:55:18;8.10;99.90
12957;DHT22;6543;48.836;10.092;2023-01-06T04:57:46;8.10;99.90
12957;DHT22;6543;48.836;10.092;2023-01-06T05:00:14;8.10;99.90
12957;DHT22;6543;48.836;10.092;2023-01-06T05:02:41;8.10;99.90
12957;DHT22;6543;48.836;10.092;2023-01-06T05:05:08;8.10;99.90
12957;DHT22;6543;48.836;10.092;2023-01-06T05:07:35;8.10;99.90
12957;DHT22;6543;48.836;10.092;2023-01-06T05:10:02;8.00;99.90
12957;DHT22;6543;48.836;10.092;2023-01-06T05:12:30;8.00;99.90
12957;DHT22;6543;48.836;10.092;2023-01-06T05:14:59;7.90;99.90
12957;DHT22;6543;48.836;10.092;2023-01-06T05:17:26;7.80;99.90
12957;DHT22;6543;48.836;10.092;2023-01-06T05:19:53;7.70;99.90
12957;DHT22;6543;48.836;10.092;2023-01-06T05:22:20;7.70;99.90
12957;DHT22;6543;48.836;10.092;2023-01-06T05:24:47;7.80;99.90
12957;DHT22;6543;48.836;10.092;2023-01-06T05:27:14;7.80;99.90
12957;DHT22;6543;48.836;10.092;2023-01-06T05:29:40;7.80;99.90
12957;DHT22;6543;48.836;10.092;2023-01-06T05:32:09;7.80;99.90
12957;DHT22;6543;48.836;10.092;2023-01-06T05:34:35;7.80;99.90
12957;DHT22;6543;48.836;10.092;2023-01-06T05:37:02;7.70;99.90
12957;DHT22;6543;48.836;10.092;2023-01-06T05:39:29;7.70;99.90
12957;DHT22;6543;48.836;10.092;2023-01-06T05:41:56;7.70;99.90
12957;DHT22;6543;48.836;10.092;2023-01-06T05:44:23;7.60;99.90
12957;DHT22;6543;48.836;10.092;2023-01-06T05:46:49;7.60;99.90
12957;DHT22;6543;48.836;10.092;2023-01-06T05:49:18;7.60;99.90
12957;DHT22;6543;48.836;10.092;2023-01-06T05:51:44;7.60;99.90
12957;DHT22;6543;48.836;10.092;2023-01-06T05:54:12;7.60;99.90
12957;DHT22;6543;48.836;10.092;2023-01-06T05:56:39;7.60;99.90
12957;DHT22;6543;48.836;10.092;2023-01-06T05:59:06;7.60;99.90
12957;DHT22;6543;48.836;10.092;2023-01-06T06:01:33;7.50;99.90
12957;DHT22;6543;48.836;10.092;2023-01-06T06:04:00;7.60;99.90
12957;DHT22;6543;48.836;10.092;2023-01-06T06:06:28;7.50;99.90
12957;DHT22;6543;48.836;10.092;2023-01-06T06:08:55;7.50;99.90
12957;DHT22;6543;48.836;10.092;2023-01-06T06:11:22;7.50;99.90
12957;DHT22;6543;48.836;10.092;2023-01-06T06:13:50;7.40;99.90
12957;DHT22;6543;48.836;10.092;2023-01-06T06:16:19;7.30;99.90
12957;DHT22;6543;48.836;10.092;2023-01-06T06:18:49;7.30;99.90
12957;DHT22;6543;48.836;10.092;2023-01-06T06:21:17;7.20;99.90
12957;DHT22;6543;48.836;10.092;2023-01-06T06:23:46;7.30;99.90
12957;DHT22;6543;48.836;10.092;2023-01-06T06:26:13;7.30;99.90
12957;DHT22;6543;48.836;10.092;2023-01-06T06:28:40;7.30;99.90
12957;DHT22;6543;48.836;10.092;2023-01-06T06:31:09;7.30;99.90
12957;DHT22;6543;48.836;10.092;2023-01-06T06:33:36;7.30;99.90
12957;DHT22;6543;48.836;10.092;2023-01-06T06:36:04;7.30;99.90
12957;DHT22;6543;48.836;10.092;2023-01-06T06:38:31;7.30;99.90
12957;DHT22;6543;48.836;10.092;2023-01-06T06:40:59;7.30;99.90
12957;DHT22;6543;48.836;10.092;2023-01-06T06:43:26;7.30;99.90
12957;DHT22;6543;48.836;10.092;2023-01-06T06:45:53;7.20;99.90
12957;DHT22;6543;48.836;10.092;2023-01-06T06:48:20;7.10;99.90
12957;DHT22;6543;48.836;10.092;2023-01-06T06:50:55;7.10;99.90
12957;DHT22;6543;48.836;10.092;2023-01-06T06:53:23;7.00;99.90
12957;DHT22;6543;48.836;10.092;2023-01-06T06:55:50;6.90;99.90
12957;DHT22;6543;48.836;10.092;2023-01-06T06:58:18;6.80;99.90
12957;DHT22;6543;48.836;10.092;2023-01-06T07:00:45;6.70;99.90
12957;DHT22;6543;48.836;10.092;2023-01-06T07:03:11;6.70;99.90
12957;DHT22;6543;48.836;10.092;2023-01-06T07:05:39;6.80;99.90
12957;DHT22;6543;48.836;10.092;2023-01-06T07:08:06;6.60;99.90
12957;DHT22;6543;48.836;10.092;2023-01-06T07:10:33;6.60;99.90
12957;DHT22;6543;48.836;10.092;2023-01-06T07:13:00;6.60;99.90
12957;DHT22;6543;48.836;10.092;2023-01-06T07:15:28;6.60;99.90
12957;DHT22;6543;48.836;10.092;2023-01-06T07:17:59;6.60;99.90
12957;DHT22;6543;48.836;10.092;2023-01-06T07:20:26;6.60;99.90
12957;DHT22;6543;48.836;10.092;2023-01-06T07:22:52;6.50;99.90
12957;DHT22;6543;48.836;10.092;2023-01-06T07:25:19;6.40;99.90
12957;DHT22;6543;48.836;10.092;2023-01-06T07:27:46;6.30;99.90
12957;DHT22;6543;48.836;10.092;2023-01-06T07:30:13;6.30;99.90
12957;DHT22;6543;48.836;10.092;2023-01-06T07:32:42;6.30;99.90
12957;DHT22;6543;48.836;10.092;2023-01-06T07:35:09;6.20;99.90
12957;DHT22;6543;48.836;10.092;2023-01-06T07:37:36;6.20;99.90
12957;DHT22;6543;48.836;10.092;2023-01-06T07:40:03;6.20;99.90
12957;DHT22;6543;48.836;10.092;2023-01-06T07:42:30;6.20;99.90
12957;DHT22;6543;48.836;10.092;2023-01-06T07:44:57;6.20;99.90
12957;DHT22;6543;48.836;10.092;2023-01-06T07:47:24;6.20;99.90
12957;DHT22;6543;48.836;10.092;2023-01-06T07:49:52;6.20;99.90
12957;DHT22;6543;48.836;10.092;2023-01-06T07:52:19;6.10;99.90
12957;DHT22;6543;48.836;10.092;2023-01-06T07:54:46;6.10;99.90
12957;DHT22;6543;48.836;10.092;2023-01-06T07:57:13;6.10;99.90
12957;DHT22;6543;48.836;10.092;2023-01-06T07:59:40;6.00;99.90
12957;DHT22;6543;48.836;10.092;2023-01-06T08:02:09;6.00;99.90
12957;DHT22;6543;48.836;10.092;2023-01-06T08:04:36;6.00;99.90
12957;DHT22;6543;48.836;10.092;2023-01-06T08:07:04;6.00;99.90
12957;DHT22;6543;48.836;10.092;2023-01-06T08:09:31;6.00;99.90
12957;DHT22;6543;48.836;10.092;2023-01-06T08:11:58;6.10;99.90
12957;DHT22;6543;48.836;10.092;2023-01-06T08:14:25;6.20;99.90
12957;DHT22;6543;48.836;10.092;2023-01-06T08:16:52;6.40;99.90
12957;DHT22;6543;48.836;10.092;2023-01-06T08:19:19;6.40;99.90
12957;DHT22;6543;48.836;10.092;2023-01-06T08:21:46;6.50;99.90
12957;DHT22;6543;48.836;10.092;2023-01-06T08:24:14;6.60;99.90
12957;DHT22;6543;48.836;10.092;2023-01-06T08:26:41;6.60;99.90
12957;DHT22;6543;48.836;10.092;2023-01-06T08:29:08;6.60;99.90
12957;DHT22;6543;48.836;10.092;2023-01-06T08:31:34;6.60;99.90
12957;DHT22;6543;48.836;10.092;2023-01-06T08:34:01;6.70;99.90
12957;DHT22;6543;48.836;10.092;2023-01-06T08:36:28;6.80;99.90
12957;DHT22;6543;48.836;10.092;2023-01-06T08:38:55;6.90;99.90
12957;DHT22;6543;48.836;10.092;2023-01-06T08:41:23;7.00;99.90
12957;DHT22;6543;48.836;10.092;2023-01-06T08:43:50;7.20;99.90
12957;DHT22;6543;48.836;10.092;2023-01-06T08:46:18;7.30;99.90
12957;DHT22;6543;48.836;10.092;2023-01-06T08:48:46;7.40;99.90
12957;DHT22;6543;48.836;10.092;2023-01-06T08:51:15;7.40;99.90
12957;DHT22;6543;48.836;10.092;2023-01-06T08:53:42;7.40;99.90
12957;DHT22;6543;48.836;10.092;2023-01-06T08:56:13;7.40;99.90
12957;DHT22;6543;48.836;10.092;2023-01-06T08:58:42;7.50;99.90
12957;DHT22;6543;48.836;10.092;2023-01-06T09:01:14;7.70;99.90
12957;DHT22;6543;48.836;10.092;2023-01-06T09:03:41;7.80;99.90
12957;DHT22;6543;48.836;10.092;2023-01-06T09:06:08;7.90;99.90
12957;DHT22;6543;48.836;10.092;2023-01-06T09:08:35;8.10;99.90
12957;DHT22;6543;48.836;10.092;2023-01-06T09:11:04;8.30;99.90
12957;DHT22;6543;48.836;10.092;2023-01-06T09:13:31;8.40;99.90
12957;DHT22;6543;48.836;10.092;2023-01-06T09:16:00;8.50;99.90
12957;DHT22;6543;48.836;10.092;2023-01-06T09:18:27;8.50;99.90
12957;DHT22;6543;48.836;10.092;2023-01-06T09:20:54;8.50;99.90
12957;DHT22;6543;48.836;10.092;2023-01-06T09:23:21;8.50;99.90
12957;DHT22;6543;48.836;10.092;2023-01-06T09:25:48;8.50;99.90
12957;DHT22;6543;48.836;10.092;2023-01-06T09:28:15;8.40;99.90
12957;DHT22;6543;48.836;10.092;2023-01-06T09:30:42;8.40;99.90
12957;DHT22;6543;48.836;10.092;2023-01-06T09:33:12;8.40;99.90
12957;DHT22;6543;48.836;10.092;2023-01-06T09:35:39;8.40;99.90
12957;DHT22;6543;48.836;10.092;2023-01-06T09:38:05;8.40;99.90
12957;DHT22;6543;48.836;10.092;2023-01-06T09:40:43;8.40;99.90
12957;DHT22;6543;48.836;10.092;2023-01-06T09:43:22;8.50;99.90
12957;DHT22;6543;48.836;10.092;2023-01-06T09:45:55;8.50;99.90
12957;DHT22;6543;48.836;10.092;2023-01-06T09:48:27;8.50;99.90
12957;DHT22;6543;48.836;10.092;2023-01-06T09:50:58;8.50;99.90
12957;DHT22;6543;48.836;10.092;2023-01-06T09:53:28;8.50;99.90
12957;DHT22;6543;48.836;10.092;2023-01-06T09:55:58;8.50;99.90
12957;DHT22;6543;48.836;10.092;2023-01-06T09:58:30;8.50;99.90
12957;DHT22;6543;48.836;10.092;2023-01-06T10:01:01;8.50;99.90
12957;DHT22;6543;48.836;10.092;2023-01-06T10:03:31;8.50;99.90
12957;DHT22;6543;48.836;10.092;2023-01-06T10:06:06;8.50;99.90
12957;DHT22;6543;48.836;10.092;2023-01-06T10:08:47;8.50;99.90
12957;DHT22;6543;48.836;10.092;2023-01-06T10:11:25;8.50;99.90
12957;DHT22;6543;48.836;10.092;2023-01-06T10:14:07;8.60;99.90
12957;DHT22;6543;48.836;10.092;2023-01-06T10:16:45;8.60;99.90
12957;DHT22;6543;48.836;10.092;2023-01-06T10:19:23;8.60;99.90
12957;DHT22;6543;48.836;10.092;2023-01-06T10:22:02;8.70;99.90
12957;DHT22;6543;48.836;10.092;2023-01-06T10:24:44;8.80;99.90
12957;DHT22;6543;48.836;10.092;2023-01-06T10:27:20;8.90;99.90
12957;DHT22;6543;48.836;10.092;2023-01-06T10:29:52;8.90;99.90
12957;DHT22;6543;48.836;10.092;2023-01-06T10:32:20;9.10;99.90
12957;DHT22;6543;48.836;10.092;2023-01-06T10:34:50;9.10;99.90
12957;DHT22;6543;48.836;10.092;2023-01-06T10:37:20;9.20;99.90
12957;DHT22;6543;48.836;10.092;2023-01-06T10:39:51;9.20;99.90
12957;DHT22;6543;48.836;10.092;2023-01-06T10:42:24;9.30;99.90
12957;DHT22;6543;48.836;10.092;2023-01-06T10:45:11;9.20;99.90
12957;DHT22;6543;48.836;10.092;2023-01-06T10:47:40;9.10;99.90
12957;DHT22;6543;48.836;10.092;2023-01-06T10:50:12;9.10;99.90
12957;DHT22;6543;48.836;10.092;2023-01-06T10:52:40;9.10;99.90
12957;DHT22;6543;48.836;10.092;2023-01-06T10:55:15;9.10;99.90
12957;DHT22;6543;48.836;10.092;2023-01-06T10:57:46;9.10;99.90
12957;DHT22;6543;48.836;10.092;2023-01-06T11:00:17;9.20;99.90
12957;DHT22;6543;48.836;10.092;2023-01-06T11:02:46;9.30;99.90
12957;DHT22;6543;48.836;10.092;2023-01-06T11:05:18;9.20;99.90
12957;DHT22;6543;48.836;10.092;2023-01-06T11:07:52;9.30;99.90
12957;DHT22;6543;48.836;10.092;2023-01-06T11:10:25;9.30;99.90
12957;DHT22;6543;48.836;10.092;2023-01-06T11:12:54;9.20;99.90
12957;DHT22;6543;48.836;10.092;2023-01-06T11:15:27;9.30;99.90
12957;DHT22;6543;48.836;10.092;2023-01-06T11:17:55;9.30;99.90
12957;DHT22;6543;48.836;10.092;2023-01-06T11:20:31;9.40;99.90
12957;DHT22;6543;48.836;10.092;2023-01-06T11:23:20;9.50;99.90
12957;DHT22;6543;48.836;10.092;2023-01-06T11:26:03;9.50;99.90
12957;DHT22;6543;48.836;10.092;2023-01-06T11:28:30;9.30;99.90
12957;DHT22;6543;48.836;10.092;2023-01-06T11:31:00;9.40;99.90
12957;DHT22;6543;48.836;10.092;2023-01-06T11:33:29;9.60;99.90
12957;DHT22;6543;48.836;10.092;2023-01-06T11:36:06;9.60;99.90
12957;DHT22;6543;48.836;10.092;2023-01-06T11:38:40;9.70;99.90
12957;DHT22;6543;48.836;10.092;2023-01-06T11:41:09;9.70;99.90
12957;DHT22;6543;48.836;10.092;2023-01-06T11:43:37;9.60;99.90
12957;DHT22;6543;48.836;10.092;2023-01-06T11:46:08;9.50;99.90
12957;DHT22;6543;48.836;10.092;2023-01-06T11:48:40;9.40;99.90
12957;DHT22;6543;48.836;10.092;2023-01-06T11:51:09;9.40;99.90
12957;DHT22;6543;48.836;10.092;2023-01-06T11:53:39;9.40;99.90
12957;DHT22;6543;48.836;10.092;2023-01-06T11:56:21;9.40;99.90
12957;DHT22;6543;48.836;10.092;2023-01-06T11:58:55;9.40;99.90
12957;DHT22;6543;48.836;10.092;2023-01-06T12:01:28;9.40;99.90
12957;DHT22;6543;48.836;10.092;2023-01-06T12:04:04;9.40;99.90
12957;DHT22;6543;48.836;10.092;2023-01-06T12:06:37;9.40;99.90
12957;DHT22;6543;48.836;10.092;2023-01-06T12:09:10;9.40;99.90
12957;DHT22;6543;48.836;10.092;2023-01-06T12:11:43;9.50;99.90
12957;DHT22;6543;48.836;10.092;2023-01-06T12:14:14;9.50;99.90
12957;DHT22;6543;48.836;10.092;2023-01-06T12:16:48;9.50;99.90
12957;DHT22;6543;48.836;10.092;2023-01-06T12:19:22;9.50;99.90
12957;DHT22;6543;48.836;10.092;2023-01-06T12:21:54;9.60;99.90
12957;DHT22;6543;48.836;10.092;2023-01-06T12:24:22;9.50;99.90
12957;DHT22;6543;48.836;10.092;2023-01-06T12:26:50;9.50;99.90
12957;DHT22;6543;48.836;10.092;2023-01-06T12:29:19;9.50;99.90
12957;DHT22;6543;48.836;10.092;2023-01-06T12:31:55;9.50;99.90
12957;DHT22;6543;48.836;10.092;2023-01-06T12:34:28;9.50;99.90
12957;DHT22;6543;48.836;10.092;2023-01-06T12:37:03;9.50;99.90
12957;DHT22;6543;48.836;10.092;2023-01-06T12:39:37;9.60;99.90
12957;DHT22;6543;48.836;10.092;2023-01-06T12:42:17;9.50;99.90
12957;DHT22;6543;48.836;10.092;2023-01-06T12:44:50;9.60;99.90
12957;DHT22;6543;48.836;10.092;2023-01-06T12:47:22;9.40;99.90
12957;DHT22;6543;48.836;10.092;2023-01-06T12:49:54;9.40;99.90
12957;DHT22;6543;48.836;10.092;2023-01-06T12:52:27;9.50;99.90
12957;DHT22;6543;48.836;10.092;2023-01-06T12:54:57;9.50;99.90
12957;DHT22;6543;48.836;10.092;2023-01-06T12:57:40;9.50;99.90
12957;DHT22;6543;48.836;10.092;2023-01-06T13:00:27;9.50;99.90
12957;DHT22;6543;48.836;10.092;2023-01-06T13:03:10;9.50;99.90
12957;DHT22;6543;48.836;10.092;2023-01-06T13:05:49;9.50;99.90
12957;DHT22;6543;48.836;10.092;2023-01-06T13:08:38;9.60;99.90
12957;DHT22;6543;48.836;10.092;2023-01-06T13:11:17;9.50;99.90
12957;DHT22;6543;48.836;10.092;2023-01-06T13:13:57;9.50;99.90
12957;DHT22;6543;48.836;10.092;2023-01-06T13:16:36;9.50;99.90
12957;DHT22;6543;48.836;10.092;2023-01-06T13:19:14;9.60;99.90
12957;DHT22;6543;48.836;10.092;2023-01-06T13:21:42;9.60;99.90
12957;DHT22;6543;48.836;10.092;2023-01-06T13:24:28;9.60;99.90
12957;DHT22;6543;48.836;10.092;2023-01-06T13:30:10;9.80;99.90
12957;DHT22;6543;48.836;10.092;2023-01-06T13:33:00;9.90;99.90
12957;DHT22;6543;48.836;10.092;2023-01-06T13:38:50;9.80;99.90
12957;DHT22;6543;48.836;10.092;2023-01-06T13:41:25;9.90;99.90
12957;DHT22;6543;48.836;10.092;2023-01-06T13:43:55;10.00;99.90
12957;DHT22;6543;48.836;10.092;2023-01-06T13:46:24;10.00;99.90
12957;DHT22;6543;48.836;10.092;2023-01-06T13:48:53;9.90;99.90
12957;DHT22;6543;48.836;10.092;2023-01-06T13:51:23;9.80;99.90
12957;DHT22;6543;48.836;10.092;2023-01-06T13:53:51;9.90;99.90
12957;DHT22;6543;48.836;10.092;2023-01-06T13:56:25;10.00;99.90
12957;DHT22;6543;48.836;10.092;2023-01-06T13:59:17;9.90;99.90
12957;DHT22;6543;48.836;10.092;2023-01-06T14:01:44;10.00;99.90
12957;DHT22;6543;48.836;10.092;2023-01-06T14:04:45;9.90;99.90
12957;DHT22;6543;48.836;10.092;2023-01-06T14:07:13;9.90;99.90
12957;DHT22;6543;48.836;10.092;2023-01-06T14:09:49;10.00;99.90
12957;DHT22;6543;48.836;10.092;2023-01-06T14:12:21;9.90;99.90
12957;DHT22;6543;48.836;10.092;2023-01-06T14:14:57;9.90;99.90
12957;DHT22;6543;48.836;10.092;2023-01-06T14:17:29;9.90;99.90
12957;DHT22;6543;48.836;10.092;2023-01-06T14:19:57;9.90;99.90
12957;DHT22;6543;48.836;10.092;2023-01-06T14:22:25;9.90;99.90
12957;DHT22;6543;48.836;10.092;2023-01-06T14:24:57;9.90;99.90
12957;DHT22;6543;48.836;10.092;2023-01-06T14:30:32;10.00;99.90
12957;DHT22;6543;48.836;10.092;2023-01-06T14:33:29;9.90;99.90
12957;DHT22;6543;48.836;10.092;2023-01-06T14:36:02;10.00;99.90
12957;DHT22;6543;48.836;10.092;2023-01-06T14:38:32;10.00;99.90
12957;DHT22;6543;48.836;10.092;2023-01-06T14:41:02;10.10;99.90
12957;DHT22;6543;48.836;10.092;2023-01-06T14:43:38;10.00;99.90
12957;DHT22;6543;48.836;10.092;2023-01-06T14:46:16;9.90;99.90
12957;DHT22;6543;48.836;10.092;2023-01-06T14:48:49;9.90;99.90
12957;DHT22;6543;48.836;10.092;2023-01-06T14:51:19;9.80;99.90
12957;DHT22;6543;48.836;10.092;2023-01-06T14:53:50;9.80;99.90
12957;DHT22;6543;48.836;10.092;2023-01-06T14:56:19;9.90;99.90
12957;DHT22;6543;48.836;10.092;2023-01-06T14:58:47;9.80;99.90
12957;DHT22;6543;48.836;10.092;2023-01-06T15:01:23;9.80;99.90
12957;DHT22;6543;48.836;10.092;2023-01-06T15:03:56;9.80;99.90
12957;DHT22;6543;48.836;10.092;2023-01-06T15:06:25;9.80;99.90
12957;DHT22;6543;48.836;10.092;2023-01-06T15:08:53;9.80;99.90
12957;DHT22;6543;48.836;10.092;2023-01-06T15:11:25;9.80;99.90
12957;DHT22;6543;48.836;10.092;2023-01-06T15:13:52;9.70;99.90
12957;DHT22;6543;48.836;10.092;2023-01-06T15:16:27;9.70;99.90
12957;DHT22;6543;48.836;10.092;2023-01-06T15:18:57;9.70;99.90
12957;DHT22;6543;48.836;10.092;2023-01-06T15:21:25;9.70;99.90
12957;DHT22;6543;48.836;10.092;2023-01-06T15:23:52;9.70;99.90
12957;DHT22;6543;48.836;10.092;2023-01-06T15:26:23;9.60;99.90
12957;DHT22;6543;48.836;10.092;2023-01-06T15:28:59;9.70;99.90
12957;DHT22;6543;48.836;10.092;2023-01-06T15:31:30;9.60;99.90
12957;DHT22;6543;48.836;10.092;2023-01-06T15:33:58;9.60;99.90
12957;DHT22;6543;48.836;10.092;2023-01-06T15:36:25;9.60;99.90
12957;DHT22;6543;48.836;10.092;2023-01-06T15:38:55;9.60;99.90
12957;DHT22;6543;48.836;10.092;2023-01-06T15:41:22;9.60;99.90
12957;DHT22;6543;48.836;10.092;2023-01-06T15:43:59;9.50;99.90
12957;DHT22;6543;48.836;10.092;2023-01-06T15:46:34;9.60;99.90
12957;DHT22;6543;48.836;10.092;2023-01-06T15:49:02;9.50;99.90
12957;DHT22;6543;48.836;10.092;2023-01-06T15:51:29;9.50;99.90
12957;DHT22;6543;48.836;10.092;2023-01-06T15:53:57;9.50;99.90
12957;DHT22;6543;48.836;10.092;2023-01-06T15:56:26;9.50;99.90
12957;DHT22;6543;48.836;10.092;2023-01-06T15:58:55;9.50;99.90
12957;DHT22;6543;48.836;10.092;2023-01-06T16:01:23;9.40;99.90
12957;DHT22;6543;48.836;10.092;2023-01-06T16:03:52;9.40;99.90
12957;DHT22;6543;48.836;10.092;2023-01-06T16:06:25;9.40;99.90
12957;DHT22;6543;48.836;10.092;2023-01-06T16:08:52;9.30;99.90
12957;DHT22;6543;48.836;10.092;2023-01-06T16:11:26;9.30;99.90
12957;DHT22;6543;48.836;10.092;2023-01-06T16:14:26;9.40;99.90
12957;DHT22;6543;48.836;10.092;2023-01-06T16:17:00;9.40;99.90
12957;DHT22;6543;48.836;10.092;2023-01-06T16:19:29;9.30;99.90
12957;DHT22;6543;48.836;10.092;2023-01-06T16:21:57;9.30;99.90